sensor_id;sensor_type;location;lat;lon;timestamp;pressure;altitude;pressure_sealevel;temperature;humidity
52719;BME280;38616;42.140;24.760;2023-10-13T00:02:02;100070.94;;;15.20;51.99
52719;BME280;38616;42.140;24.760;2023-10-13T00:04:33;100078.19;;;15.11;52.28
52719;BME280;38616;42.140;24.760;2023-10-13T00:07:02;100069.66;;;14.99;52.57
52719;BME280;38616;42.140;24.760;2023-10-13T00:09:29;100072.47;;;14.55;53.70
52719;BME280;38616;42.140;24.760;2023-10-13T00:12:01;100081.06;;;14.24;55.00
52719;BME280;38616;42.140;24.760;2023-10-13T00:14:27;100068.91;;;14.36;54.82
52719;BME280;38616;42.140;24.760;2023-10-13T00:17:04;100068.56;;;14.61;54.11
52719;BME280;38616;42.140;24.760;2023-10-13T00:19:31;100073.81;;;14.77;53.74
52719;BME280;38616;42.140;24.760;2023-10-13T00:22:18;100063.00;;;14.67;53.65
52719;BME280;38616;42.140;24.760;2023-10-13T00:24:45;100060.34;;;14.61;53.47
52719;BME280;38616;42.140;24.760;2023-10-13T00:27:18;100060.78;;;14.88;53.11
52719;BME280;38616;42.140;24.760;2023-10-13T00:30:04;100061.69;;;14.45;54.01
52719;BME280;38616;42.140;24.760;2023-10-13T00:32:49;100075.66;;;14.19;54.59
52719;BME280;38616;42.140;24.760;2023-10-13T00:35:28;100066.88;;;14.03;55.06
52719;BME280;38616;42.140;24.760;2023-10-13T00:37:55;100066.69;;;13.70;56.12
52719;BME280;38616;42.140;24.760;2023-10-13T00:40:23;100068.50;;;13.55;56.54
52719;BME280;38616;42.140;24.760;2023-10-13T00:42:55;100058.25;;;13.42;57.38
52719;BME280;38616;42.140;24.760;2023-10-13T00:45:21;100062.47;;;13.83;56.60
52719;BME280;38616;42.140;24.760;2023-10-13T00:47:47;100060.69;;;14.16;55.35
52719;BME280;38616;42.140;24.760;2023-10-13T00:50:21;100049.56;;;14.32;54.83
52719;BME280;38616;42.140;24.760;2023-10-13T00:52:49;100044.91;;;14.52;54.44
52719;BME280;38616;42.140;24.760;2023-10-13T00:55:19;100051.03;;;14.62;53.94
52719;BME280;38616;42.140;24.760;2023-10-13T00:57:55;100050.97;;;14.48;54.21
52719;BME280;38616;42.140;24.760;2023-10-13T01:00:22;100051.19;;;14.52;54.16
52719;BME280;38616;42.140;24.760;2023-10-13T01:02:54;100049.69;;;14.22;54.54
52719;BME280;38616;42.140;24.760;2023-10-13T01:05:22;100047.94;;;14.12;54.85
52719;BME280;38616;42.140;24.760;2023-10-13T01:07:49;100043.16;;;13.98;54.95
52719;BME280;38616;42.140;24.760;2023-10-13T01:10:18;100048.84;;;14.02;54.84
52719;BME280;38616;42.140;24.760;2023-10-13T01:12:44;100052.47;;;13.97;55.18
52719;BME280;38616;42.140;24.760;2023-10-13T01:15:11;100054.22;;;13.64;55.89
52719;BME280;38616;42.140;24.760;2023-10-13T01:17:39;100050.72;;;13.82;55.66
52719;BME280;38616;42.140;24.760;2023-10-13T01:20:05;100060.59;;;14.02;55.14
52719;BME280;38616;42.140;24.760;2023-10-13T01:22:31;100045.50;;;13.86;55.36
52719;BME280;38616;42.140;24.760;2023-10-13T01:24:57;100042.88;;;14.00;54.64
52719;BME280;38616;42.140;24.760;2023-10-13T01:27:36;100044.38;;;14.30;53.69
52719;BME280;38616;42.140;24.760;2023-10-13T01:30:03;100035.22;;;14.21;53.96
52719;BME280;38616;42.140;24.760;2023-10-13T01:32:34;100043.00;;;14.33;53.75
52719;BME280;38616;42.140;24.760;2023-10-13T01:35:06;100040.25;;;14.33;53.87
52719;BME280;38616;42.140;24.760;2023-10-13T01:37:32;100045.41;;;14.34;53.54
52719;BME280;38616;42.140;24.760;2023-10-13T01:39:58;100052.94;;;14.24;53.95
52719;BME280;38616;42.140;24.760;2023-10-13T01:42:23;100053.63;;;14.34;53.32
52719;BME280;38616;42.140;24.760;2023-10-13T01:44:50;100046.25;;;14.35;53.86
52719;BME280;38616;42.140;24.760;2023-10-13T01:47:16;100050.47;;;14.46;53.06
52719;BME280;38616;42.140;24.760;2023-10-13T01:49:42;100048.00;;;14.26;53.53
52719;BME280;38616;42.140;24.760;2023-10-13T01:52:11;100041.25;;;14.18;53.79
52719;BME280;38616;42.140;24.760;2023-10-13T01:54:40;100043.34;;;14.26;53.15
52719;BME280;38616;42.140;24.760;2023-10-13T01:57:09;100036.19;;;14.30;53.09
52719;BME280;38616;42.140;24.760;2023-10-13T01:59:40;100046.44;;;14.39;53.33
52719;BME280;38616;42.140;24.760;2023-10-13T02:02:12;100036.91;;;14.17;54.02
52719;BME280;38616;42.140;24.760;2023-10-13T02:04:41;100039.63;;;14.17;54.38
52719;BME280;38616;42.140;24.760;2023-10-13T02:07:14;100036.75;;;14.08;54.43
52719;BME280;38616;42.140;24.760;2023-10-13T02:09:41;100038.63;;;14.13;54.67
52719;BME280;38616;42.140;24.760;2023-10-13T02:12:08;100036.09;;;14.36;54.16
52719;BME280;38616;42.140;24.760;2023-10-13T02:14:35;100027.03;;;14.59;53.30
52719;BME280;38616;42.140;24.760;2023-10-13T02:17:02;100022.97;;;14.38;53.42
52719;BME280;38616;42.140;24.760;2023-10-13T02:19:41;100038.47;;;13.80;54.85
52719;BME280;38616;42.140;24.760;2023-10-13T02:22:11;100041.09;;;13.90;54.85
52719;BME280;38616;42.140;24.760;2023-10-13T02:24:54;100040.44;;;13.98;54.36
52719;BME280;38616;42.140;24.760;2023-10-13T02:27:26;100044.41;;;13.87;54.78
52719;BME280;38616;42.140;24.760;2023-10-13T02:29:52;100041.88;;;13.91;54.79
52719;BME280;38616;42.140;24.760;2023-10-13T02:32:24;100049.50;;;13.94;54.71
52719;BME280;38616;42.140;24.760;2023-10-13T02:34:49;100048.56;;;13.79;55.05
52719;BME280;38616;42.140;24.760;2023-10-13T02:37:15;100050.09;;;13.66;54.69
52719;BME280;38616;42.140;24.760;2023-10-13T02:39:44;100042.84;;;13.56;54.90
52719;BME280;38616;42.140;24.760;2023-10-13T02:42:10;100042.13;;;13.40;55.71
52719;BME280;38616;42.140;24.760;2023-10-13T02:44:51;100038.13;;;13.62;55.12
52719;BME280;38616;42.140;24.760;2023-10-13T02:47:17;100036.44;;;13.66;55.39
52719;BME280;38616;42.140;24.760;2023-10-13T02:49:45;100033.88;;;13.75;55.10
52719;BME280;38616;42.140;24.760;2023-10-13T02:52:12;100036.09;;;13.97;54.78
52719;BME280;38616;42.140;24.760;2023-10-13T02:54:42;100037.34;;;14.05;54.51
52719;BME280;38616;42.140;24.760;2023-10-13T02:57:16;100037.00;;;14.12;54.16
52719;BME280;38616;42.140;24.760;2023-10-13T02:59:43;100038.38;;;14.09;54.63
52719;BME280;38616;42.140;24.760;2023-10-13T03:02:13;100037.59;;;14.09;54.58
52719;BME280;38616;42.140;24.760;2023-10-13T03:04:57;100035.13;;;14.07;54.58
52719;BME280;38616;42.140;24.760;2023-10-13T03:07:41;100027.44;;;14.09;54.33
52719;BME280;38616;42.140;24.760;2023-10-13T03:10:10;100019.91;;;14.01;54.53
52719;BME280;38616;42.140;24.760;2023-10-13T03:12:36;100026.66;;;14.09;54.52
52719;BME280;38616;42.140;24.760;2023-10-13T03:15:03;100023.53;;;13.96;54.62
52719;BME280;38616;42.140;24.760;2023-10-13T03:17:40;100031.25;;;13.89;54.88
52719;BME280;38616;42.140;24.760;2023-10-13T03:20:16;100025.88;;;13.84;55.12
52719;BME280;38616;42.140;24.760;2023-10-13T03:22:52;100020.16;;;14.04;54.81
52719;BME280;38616;42.140;24.760;2023-10-13T03:25:18;100019.97;;;13.96;54.59
52719;BME280;38616;42.140;24.760;2023-10-13T03:28:08;100017.66;;;13.84;54.91
52719;BME280;38616;42.140;24.760;2023-10-13T03:30:37;100007.72;;;13.93;54.69
52719;BME280;38616;42.140;24.760;2023-10-13T03:33:07;100016.44;;;13.95;54.62
52719;BME280;38616;42.140;24.760;2023-10-13T03:35:36;100016.22;;;13.67;55.33
52719;BME280;38616;42.140;24.760;2023-10-13T03:38:09;100016.78;;;13.40;56.12
52719;BME280;38616;42.140;24.760;2023-10-13T03:40:45;100012.28;;;13.25;56.87
52719;BME280;38616;42.140;24.760;2023-10-13T03:43:14;100006.09;;;13.43;55.98
52719;BME280;38616;42.140;24.760;2023-10-13T03:45:48;99999.84;;;13.43;55.91
52719;BME280;38616;42.140;24.760;2023-10-13T03:48:19;100004.94;;;13.50;55.83
52719;BME280;38616;42.140;24.760;2023-10-13T03:50:53;100004.25;;;13.63;55.51
52719;BME280;38616;42.140;24.760;2023-10-13T03:53:45;100010.28;;;13.60;55.45
52719;BME280;38616;42.140;24.760;2023-10-13T03:58:55;99991.38;;;13.69;55.32
52719;BME280;38616;42.140;24.760;2023-10-13T04:01:25;100002.69;;;13.57;55.77
52719;BME280;38616;42.140;24.760;2023-10-13T04:04:01;100006.31;;;13.52;55.63
52719;BME280;38616;42.140;24.760;2023-10-13T04:06:34;100011.13;;;13.61;55.69
52719;BME280;38616;42.140;24.760;2023-10-13T04:09:19;100009.56;;;13.54;55.87
52719;BME280;38616;42.140;24.760;2023-10-13T04:11:54;100007.41;;;13.22;56.44
52719;BME280;38616;42.140;24.760;2023-10-13T04:14:34;100015.03;;;13.25;56.71
52719;BME280;38616;42.140;24.760;2023-10-13T04:17:18;100023.44;;;12.64;58.52
52719;BME280;38616;42.140;24.760;2023-10-13T04:19:58;100023.56;;;12.44;59.49
52719;BME280;38616;42.140;24.760;2023-10-13T04:22:43;100023.28;;;12.40;59.74
52719;BME280;38616;42.140;24.760;2023-10-13T04:25:22;100030.88;;;12.48;59.19
52719;BME280;38616;42.140;24.760;2023-10-13T04:28:13;100033.03;;;12.51;58.88
52719;BME280;38616;42.140;24.760;2023-10-13T04:30:49;100039.28;;;12.57;59.23
52719;BME280;38616;42.140;24.760;2023-10-13T04:33:24;100037.97;;;12.49;59.06
52719;BME280;38616;42.140;24.760;2023-10-13T04:36:06;100033.00;;;12.56;59.27
52719;BME280;38616;42.140;24.760;2023-10-13T04:38:55;100043.28;;;12.25;59.67
52719;BME280;38616;42.140;24.760;2023-10-13T04:44:15;100036.00;;;12.95;57.93
52719;BME280;38616;42.140;24.760;2023-10-13T04:47:00;100045.44;;;13.08;57.56
52719;BME280;38616;42.140;24.760;2023-10-13T04:49:30;100025.53;;;13.07;56.87
52719;BME280;38616;42.140;24.760;2023-10-13T04:52:11;100035.22;;;13.24;56.99
52719;BME280;38616;42.140;24.760;2023-10-13T04:54:40;100045.06;;;13.20;57.10
52719;BME280;38616;42.140;24.760;2023-10-13T04:57:24;100043.66;;;13.22;56.82
52719;BME280;38616;42.140;24.760;2023-10-13T05:00:22;100035.41;;;13.33;56.64
52719;BME280;38616;42.140;24.760;2023-10-13T05:02:47;100038.97;;;13.28;56.81
52719;BME280;38616;42.140;24.760;2023-10-13T05:05:25;100031.38;;;13.25;56.92
52719;BME280;38616;42.140;24.760;2023-10-13T05:07:51;100024.44;;;13.38;56.36
52719;BME280;38616;42.140;24.760;2023-10-13T05:10:36;100013.50;;;13.38;56.39
52719;BME280;38616;42.140;24.760;2023-10-13T05:13:21;100011.81;;;13.47;56.36
52719;BME280;38616;42.140;24.760;2023-10-13T05:16:07;100019.66;;;13.54;56.26
52719;BME280;38616;42.140;24.760;2023-10-13T05:18:54;100021.69;;;13.67;55.40
52719;BME280;38616;42.140;24.760;2023-10-13T05:21:38;100027.13;;;13.92;55.15
52719;BME280;38616;42.140;24.760;2023-10-13T05:24:22;100022.63;;;13.82;54.67
52719;BME280;38616;42.140;24.760;2023-10-13T05:27:06;100025.41;;;13.77;54.97
52719;BME280;38616;42.140;24.760;2023-10-13T05:29:50;100030.44;;;13.88;55.08
52719;BME280;38616;42.140;24.760;2023-10-13T05:32:33;100027.81;;;14.02;54.11
52719;BME280;38616;42.140;24.760;2023-10-13T05:35:20;100035.38;;;14.11;54.17
52719;BME280;38616;42.140;24.760;2023-10-13T05:38:04;100033.63;;;13.96;54.67
52719;BME280;38616;42.140;24.760;2023-10-13T05:41:01;100040.63;;;13.83;54.61
52719;BME280;38616;42.140;24.760;2023-10-13T05:43:45;100045.03;;;13.79;54.78
52719;BME280;38616;42.140;24.760;2023-10-13T05:46:30;100038.88;;;13.92;54.83
52719;BME280;38616;42.140;24.760;2023-10-13T05:49:02;100046.63;;;14.04;54.66
52719;BME280;38616;42.140;24.760;2023-10-13T05:51:31;100054.81;;;13.85;55.03
52719;BME280;38616;42.140;24.760;2023-10-13T05:54:05;100048.50;;;13.84;54.62
52719;BME280;38616;42.140;24.760;2023-10-13T05:56:46;100066.78;;;13.65;55.49
52719;BME280;38616;42.140;24.760;2023-10-13T05:59:31;100062.94;;;13.90;55.10
52719;BME280;38616;42.140;24.760;2023-10-13T06:02:17;100061.31;;;13.89;54.96
52719;BME280;38616;42.140;24.760;2023-10-13T06:05:02;100066.22;;;14.11;54.05
52719;BME280;38616;42.140;24.760;2023-10-13T06:07:46;100065.97;;;14.32;53.44
52719;BME280;38616;42.140;24.760;2023-10-13T06:10:30;100062.63;;;14.35;53.13
52719;BME280;38616;42.140;24.760;2023-10-13T06:13:14;100068.31;;;14.58;53.04
52719;BME280;38616;42.140;24.760;2023-10-13T06:15:58;100066.41;;;14.77;52.58
52719;BME280;38616;42.140;24.760;2023-10-13T06:18:42;100071.44;;;14.89;52.19
52719;BME280;38616;42.140;24.760;2023-10-13T06:21:26;100072.13;;;15.14;52.03
52719;BME280;38616;42.140;24.760;2023-10-13T06:24:10;100076.28;;;15.12;51.75
52719;BME280;38616;42.140;24.760;2023-10-13T06:26:53;100081.09;;;15.20;52.02
52719;BME280;38616;42.140;24.760;2023-10-13T06:29:37;100076.56;;;15.57;50.81
52719;BME280;38616;42.140;24.760;2023-10-13T06:32:03;100080.84;;;15.49;50.79
52719;BME280;38616;42.140;24.760;2023-10-13T06:34:38;100075.47;;;15.58;50.68
52719;BME280;38616;42.140;24.760;2023-10-13T06:37:11;100074.06;;;15.61;50.88
52719;BME280;38616;42.140;24.760;2023-10-13T06:40:02;100079.34;;;15.71;50.17
52719;BME280;38616;42.140;24.760;2023-10-13T06:42:32;100084.69;;;15.48;50.63
52719;BME280;38616;42.140;24.760;2023-10-13T06:45:00;100082.97;;;15.39;51.12
52719;BME280;38616;42.140;24.760;2023-10-13T06:47:28;100077.59;;;15.47;51.03
52719;BME280;38616;42.140;24.760;2023-10-13T06:49:54;100086.88;;;15.79;50.28
52719;BME280;38616;42.140;24.760;2023-10-13T06:52:22;100075.94;;;15.93;50.03
52719;BME280;38616;42.140;24.760;2023-10-13T06:54:51;100065.06;;;16.02;49.70
52719;BME280;38616;42.140;24.760;2023-10-13T06:57:17;100070.53;;;16.16;49.75
52719;BME280;38616;42.140;24.760;2023-10-13T06:59:48;100065.66;;;16.27;49.05
52719;BME280;38616;42.140;24.760;2023-10-13T07:02:14;100075.06;;;16.35;48.99
52719;BME280;38616;42.140;24.760;2023-10-13T07:04:49;100072.31;;;16.35;49.38
52719;BME280;38616;42.140;24.760;2023-10-13T07:07:22;100073.44;;;16.48;48.67
52719;BME280;38616;42.140;24.760;2023-10-13T07:09:49;100071.38;;;16.53;48.27
52719;BME280;38616;42.140;24.760;2023-10-13T07:12:21;100073.44;;;16.48;48.01
52719;BME280;38616;42.140;24.760;2023-10-13T07:14:53;100070.97;;;16.60;47.99
52719;BME280;38616;42.140;24.760;2023-10-13T07:17:36;100083.69;;;16.79;47.87
52719;BME280;38616;42.140;24.760;2023-10-13T07:20:07;100080.81;;;16.84;47.60
52719;BME280;38616;42.140;24.760;2023-10-13T07:22:49;100079.97;;;16.75;47.69
52719;BME280;38616;42.140;24.760;2023-10-13T07:25:41;100074.97;;;16.77;47.51
52719;BME280;38616;42.140;24.760;2023-10-13T07:28:07;100068.22;;;16.97;47.40
52719;BME280;38616;42.140;24.760;2023-10-13T07:30:36;100066.50;;;17.10;47.03
52719;BME280;38616;42.140;24.760;2023-10-13T07:33:17;100073.69;;;17.20;46.43
52719;BME280;38616;42.140;24.760;2023-10-13T07:35:59;100071.91;;;17.24;46.59
52719;BME280;38616;42.140;24.760;2023-10-13T07:38:26;100062.75;;;17.28;46.59
52719;BME280;38616;42.140;24.760;2023-10-13T07:40:56;100062.50;;;17.39;46.81
52719;BME280;38616;42.140;24.760;2023-10-13T07:43:25;100068.97;;;17.43;46.68
52719;BME280;38616;42.140;24.760;2023-10-13T07:45:53;100065.47;;;17.51;46.37
52719;BME280;38616;42.140;24.760;2023-10-13T07:48:26;100063.09;;;17.67;46.02
52719;BME280;38616;42.140;24.760;2023-10-13T07:51:00;100066.88;;;17.80;45.72
52719;BME280;38616;42.140;24.760;2023-10-13T07:53:28;100061.06;;;17.82;45.57
52719;BME280;38616;42.140;24.760;2023-10-13T07:56:00;100066.31;;;18.01;45.37
52719;BME280;38616;42.140;24.760;2023-10-13T07:58:30;100065.38;;;18.06;45.31
52719;BME280;38616;42.140;24.760;2023-10-13T08:00:58;100066.03;;;18.11;44.45
52719;BME280;38616;42.140;24.760;2023-10-13T08:03:23;100059.72;;;18.11;44.60
52719;BME280;38616;42.140;24.760;2023-10-13T08:06:07;100061.03;;;18.22;44.48
52719;BME280;38616;42.140;24.760;2023-10-13T08:08:45;100063.31;;;18.38;43.72
52719;BME280;38616;42.140;24.760;2023-10-13T08:11:16;100060.75;;;18.41;43.67
52719;BME280;38616;42.140;24.760;2023-10-13T08:13:58;100061.25;;;18.43;43.81
52719;BME280;38616;42.140;24.760;2023-10-13T08:16:36;100056.03;;;18.33;44.11
52719;BME280;38616;42.140;24.760;2023-10-13T08:19:15;100053.63;;;18.49;44.03
52719;BME280;38616;42.140;24.760;2023-10-13T08:21:45;100051.19;;;18.65;43.54
52719;BME280;38616;42.140;24.760;2023-10-13T08:24:36;100048.59;;;18.78;43.66
52719;BME280;38616;42.140;24.760;2023-10-13T08:27:06;100044.72;;;18.79;42.97
52719;BME280;38616;42.140;24.760;2023-10-13T08:29:47;100041.81;;;18.84;43.03
52719;BME280;38616;42.140;24.760;2023-10-13T08:32:26;100038.41;;;18.96;43.06
52719;BME280;38616;42.140;24.760;2023-10-13T08:34:58;100034.03;;;19.03;42.60
52719;BME280;38616;42.140;24.760;2023-10-13T08:37:23;100022.84;;;19.09;42.31
52719;BME280;38616;42.140;24.760;2023-10-13T08:39:50;100020.41;;;19.16;42.29
52719;BME280;38616;42.140;24.760;2023-10-13T08:42:30;100020.19;;;19.30;42.13
52719;BME280;38616;42.140;24.760;2023-10-13T08:45:16;100015.81;;;19.38;41.85
52719;BME280;38616;42.140;24.760;2023-10-13T08:47:52;100013.91;;;19.29;41.75
52719;BME280;38616;42.140;24.760;2023-10-13T08:50:50;100016.78;;;19.33;41.97
52719;BME280;38616;42.140;24.760;2023-10-13T08:53:16;100018.00;;;19.53;41.66
52719;BME280;38616;42.140;24.760;2023-10-13T08:56:04;100006.25;;;19.35;41.96
52719;BME280;38616;42.140;24.760;2023-10-13T08:58:42;100011.56;;;19.40;41.54
52719;BME280;38616;42.140;24.760;2023-10-13T09:04:06;100008.31;;;19.77;41.22
52719;BME280;38616;42.140;24.760;2023-10-13T09:06:48;100002.31;;;19.84;41.11
52719;BME280;38616;42.140;24.760;2023-10-13T09:15:09;99998.75;;;20.13;40.29
52719;BME280;38616;42.140;24.760;2023-10-13T09:17:46;99992.47;;;20.04;40.17
52719;BME280;38616;42.140;24.760;2023-10-13T09:20:38;99993.78;;;20.28;40.21
52719;BME280;38616;42.140;24.760;2023-10-13T09:23:11;99995.41;;;20.41;39.87
52719;BME280;38616;42.140;24.760;2023-10-13T09:25:49;99999.59;;;20.47;39.26
52719;BME280;38616;42.140;24.760;2023-10-13T09:28:34;99995.38;;;20.50;39.28
52719;BME280;38616;42.140;24.760;2023-10-13T09:31:02;99997.03;;;20.42;39.40
52719;BME280;38616;42.140;24.760;2023-10-13T09:33:32;99998.44;;;20.48;39.25
52719;BME280;38616;42.140;24.760;2023-10-13T09:36:05;100002.44;;;20.38;39.66
52719;BME280;38616;42.140;24.760;2023-10-13T09:38:35;100004.69;;;20.58;39.14
52719;BME280;38616;42.140;24.760;2023-10-13T09:41:05;99995.47;;;20.75;38.80
52719;BME280;38616;42.140;24.760;2023-10-13T09:43:49;99991.66;;;21.01;38.46
52719;BME280;38616;42.140;24.760;2023-10-13T09:46:19;99986.88;;;21.22;38.03
52719;BME280;38616;42.140;24.760;2023-10-13T09:48:49;99989.97;;;21.08;38.14
52719;BME280;38616;42.140;24.760;2023-10-13T09:51:30;99989.97;;;21.21;38.17
52719;BME280;38616;42.140;24.760;2023-10-13T09:54:10;99973.97;;;21.26;37.82
52719;BME280;38616;42.140;24.760;2023-10-13T09:57:00;99979.97;;;21.29;37.82
52719;BME280;38616;42.140;24.760;2023-10-13T09:59:57;99972.25;;;21.47;37.73
52719;BME280;38616;42.140;24.760;2023-10-13T10:02:31;99966.97;;;21.41;37.54
52719;BME280;38616;42.140;24.760;2023-10-13T10:04:57;99966.19;;;21.53;37.97
52719;BME280;38616;42.140;24.760;2023-10-13T10:07:41;99973.88;;;21.35;37.21
52719;BME280;38616;42.140;24.760;2023-10-13T10:10:09;99964.88;;;21.38;37.25
52719;BME280;38616;42.140;24.760;2023-10-13T10:13:04;99965.34;;;21.53;37.16
52719;BME280;38616;42.140;24.760;2023-10-13T10:15:35;99957.78;;;21.62;36.77
52719;BME280;38616;42.140;24.760;2023-10-13T10:18:00;99952.34;;;21.66;36.95
52719;BME280;38616;42.140;24.760;2023-10-13T10:23:05;99937.84;;;21.69;36.97
52719;BME280;38616;42.140;24.760;2023-10-13T10:25:36;99936.91;;;21.65;37.10
52719;BME280;38616;42.140;24.760;2023-10-13T10:28:05;99926.50;;;21.99;37.03
52719;BME280;38616;42.140;24.760;2023-10-13T10:30:33;99928.13;;;22.28;36.63
52719;BME280;38616;42.140;24.760;2023-10-13T10:33:00;99924.44;;;22.24;36.87
52719;BME280;38616;42.140;24.760;2023-10-13T10:35:27;99918.66;;;22.29;36.22
52719;BME280;38616;42.140;24.760;2023-10-13T10:41:01;99910.47;;;22.33;36.18
52719;BME280;38616;42.140;24.760;2023-10-13T10:46:27;99908.88;;;22.32;36.43
52719;BME280;38616;42.140;24.760;2023-10-13T10:48:55;99900.19;;;22.34;36.11
52719;BME280;38616;42.140;24.760;2023-10-13T10:51:27;99899.16;;;22.38;35.87
52719;BME280;38616;42.140;24.760;2023-10-13T10:53:57;99897.63;;;22.41;35.46
52719;BME280;38616;42.140;24.760;2023-10-13T10:56:25;99899.50;;;22.37;35.34
52719;BME280;38616;42.140;24.760;2023-10-13T10:58:58;99898.84;;;22.56;35.36
52719;BME280;38616;42.140;24.760;2023-10-13T11:01:27;99887.44;;;22.57;34.98
52719;BME280;38616;42.140;24.760;2023-10-13T11:04:08;99881.91;;;22.73;34.77
52719;BME280;38616;42.140;24.760;2023-10-13T11:06:37;99876.56;;;22.81;34.77
52719;BME280;38616;42.140;24.760;2023-10-13T11:09:07;99886.56;;;23.01;34.28
52719;BME280;38616;42.140;24.760;2023-10-13T11:11:52;99880.94;;;23.14;34.21
52719;BME280;38616;42.140;24.760;2023-10-13T11:14:22;99872.28;;;23.31;33.58
52719;BME280;38616;42.140;24.760;2023-10-13T11:16:54;99865.47;;;23.29;33.46
52719;BME280;38616;42.140;24.760;2023-10-13T11:19:40;99863.75;;;23.40;33.36
52719;BME280;38616;42.140;24.760;2023-10-13T11:22:10;99864.06;;;23.55;33.27
52719;BME280;38616;42.140;24.760;2023-10-13T11:24:40;99865.03;;;23.63;33.08
52719;BME280;38616;42.140;24.760;2023-10-13T11:27:16;99847.16;;;23.60;32.76
52719;BME280;38616;42.140;24.760;2023-10-13T11:30:02;99862.50;;;23.73;32.74
52719;BME280;38616;42.140;24.760;2023-10-13T11:32:30;99860.91;;;23.72;32.47
52719;BME280;38616;42.140;24.760;2023-10-13T11:34:56;99851.59;;;23.65;32.46
52719;BME280;38616;42.140;24.760;2023-10-13T11:37:21;99846.72;;;23.58;32.52
52719;BME280;38616;42.140;24.760;2023-10-13T11:40:04;99840.03;;;23.43;33.13
52719;BME280;38616;42.140;24.760;2023-10-13T11:42:38;99844.72;;;23.39;33.40
52719;BME280;38616;42.140;24.760;2023-10-13T11:45:09;99838.16;;;23.47;33.13
52719;BME280;38616;42.140;24.760;2023-10-13T11:47:53;99851.53;;;23.61;32.72
52719;BME280;38616;42.140;24.760;2023-10-13T11:50:27;99842.25;;;23.53;33.16
52719;BME280;38616;42.140;24.760;2023-10-13T11:53:02;99840.63;;;23.52;33.30
52719;BME280;38616;42.140;24.760;2023-10-13T11:55:33;99839.56;;;23.57;33.26
52719;BME280;38616;42.140;24.760;2023-10-13T11:58:00;99834.63;;;23.66;33.20
52719;BME280;38616;42.140;24.760;2023-10-13T12:00:25;99838.72;;;23.72;32.52
52719;BME280;38616;42.140;24.760;2023-10-13T12:03:11;99841.63;;;23.80;32.49
52719;BME280;38616;42.140;24.760;2023-10-13T12:05:54;99841.91;;;23.94;32.11
52719;BME280;38616;42.140;24.760;2023-10-13T12:08:39;99838.97;;;23.87;32.36
52719;BME280;38616;42.140;24.760;2023-10-13T12:11:15;99836.44;;;23.78;32.85
52719;BME280;38616;42.140;24.760;2023-10-13T12:13:56;99838.69;;;23.92;32.16
52719;BME280;38616;42.140;24.760;2023-10-13T12:16:22;99841.06;;;24.10;31.99
52719;BME280;38616;42.140;24.760;2023-10-13T12:18:48;99834.19;;;24.03;31.83
52719;BME280;38616;42.140;24.760;2023-10-13T12:21:21;99834.34;;;24.11;31.48
52719;BME280;38616;42.140;24.760;2023-10-13T12:23:47;99833.69;;;24.17;31.81
52719;BME280;38616;42.140;24.760;2023-10-13T12:26:13;99836.31;;;24.10;31.66
52719;BME280;38616;42.140;24.760;2023-10-13T12:28:47;99832.00;;;24.13;31.80
52719;BME280;38616;42.140;24.760;2023-10-13T12:31:31;99838.75;;;24.35;31.27
52719;BME280;38616;42.140;24.760;2023-10-13T12:33:57;99831.81;;;24.45;30.82
52719;BME280;38616;42.140;24.760;2023-10-13T12:36:32;99843.09;;;24.56;30.55
52719;BME280;38616;42.140;24.760;2023-10-13T12:39:06;99851.59;;;24.43;30.62
52719;BME280;38616;42.140;24.760;2023-10-13T12:41:32;99841.06;;;24.10;30.76
52719;BME280;38616;42.140;24.760;2023-10-13T12:44:16;99834.78;;;24.13;31.25
52719;BME280;38616;42.140;24.760;2023-10-13T12:47:00;99837.97;;;24.34;30.46
52719;BME280;38616;42.140;24.760;2023-10-13T12:49:44;99830.13;;;24.40;29.66
52719;BME280;38616;42.140;24.760;2023-10-13T12:52:13;99826.94;;;24.61;29.72
52719;BME280;38616;42.140;24.760;2023-10-13T12:54:48;99829.00;;;24.68;28.83
52719;BME280;38616;42.140;24.760;2023-10-13T12:57:39;99825.81;;;24.66;28.80
52719;BME280;38616;42.140;24.760;2023-10-13T13:00:10;99828.56;;;24.86;27.96
52719;BME280;38616;42.140;24.760;2023-10-13T13:02:43;99822.06;;;24.78;28.36
52719;BME280;38616;42.140;24.760;2023-10-13T13:05:08;99822.88;;;24.78;27.84
52719;BME280;38616;42.140;24.760;2023-10-13T13:07:38;99822.47;;;24.80;27.67
52719;BME280;38616;42.140;24.760;2023-10-13T13:10:15;99819.91;;;24.91;27.34
52719;BME280;38616;42.140;24.760;2023-10-13T13:12:41;99812.25;;;24.84;27.37
52719;BME280;38616;42.140;24.760;2023-10-13T13:15:07;99816.06;;;24.76;27.89
52719;BME280;38616;42.140;24.760;2023-10-13T13:17:38;99817.56;;;24.70;28.15
52719;BME280;38616;42.140;24.760;2023-10-13T13:20:07;99817.25;;;24.75;28.35
52719;BME280;38616;42.140;24.760;2023-10-13T13:22:54;99819.91;;;24.91;28.28
52719;BME280;38616;42.140;24.760;2023-10-13T13:25:20;99806.47;;;24.97;27.91
52719;BME280;38616;42.140;24.760;2023-10-13T13:27:51;99807.44;;;25.08;27.49
52719;BME280;38616;42.140;24.760;2023-10-13T13:30:16;99804.31;;;25.10;27.52
52719;BME280;38616;42.140;24.760;2023-10-13T13:32:45;99808.88;;;25.25;27.21
52719;BME280;38616;42.140;24.760;2023-10-13T13:35:12;99805.84;;;25.34;26.70
52719;BME280;38616;42.140;24.760;2023-10-13T13:37:39;99813.00;;;25.35;26.70
52719;BME280;38616;42.140;24.760;2023-10-13T13:40:06;99803.59;;;25.16;27.08
52719;BME280;38616;42.140;24.760;2023-10-13T13:42:44;99802.13;;;25.26;26.72